Latest Coastal Weather Observations for East Sale Airport

IDV60701

Issued at 10:11 pm EDT Wednesday 7 December 2022 (issued every 10 minutes, with the page automatically refreshed every 10 minutes)

About coastal observations | Map of coastal stations | Coastal observations for VIC | Marine services | Other Formats
Station Details ID: 085314 Name: EAST SALE AIRPORT Lat: -38.10 Lon: 147.14 Height: 5.3 m
Data from the previous 72 hours. | See also: Recent months at East Sale Airport
Date/Time
EDT
Wind Sea
Height
m
Swell Vis
km
Cloud Weather Temp
°C
Press
MSL
hPa
Rain since
9am
mm
Dir  Spd
kts
Gust
kts
Height
m
Period
s
Dir
07/10:00pm W 20 30 - - - - 10 Partly cloudy - 12.8 1004.9 1.2
07/09:48pm W 16 26 - - - - 10 Partly cloudy Showers 14.2 1004.7 1.2
07/09:30pm W 10 13 - - - - 10 Mostly clear - 13.8 1004.1 1.2
07/09:00pm W 7 10 - - - - 10 - - 13.9 1003.5 1.2
07/08:30pm W 12 17 - - - - 10 - - 14.6 1003.2 1.2
07/08:00pm W 14 21 - - - - 10 Partly cloudy - 15.4 1003.0 1.2
07/07:44pm W 15 25 - - - - 10 Mostly clear - 15.7 1002.9 1.2
07/07:30pm WSW 11 16 - - - - 10 - - 16.0 1002.6 1.2
07/07:00pm WSW 17 27 - - - - 10 Partly cloudy - 16.4 1002.4 1.2
07/06:57pm WSW 17 27 - - - - 10 Partly cloudy - 16.7 1002.5 1.2
07/06:30pm W 17 25 - - - - 10 Partly cloudy - 17.3 1002.1 1.2
07/06:00pm W 13 20 - - - - 10 Cloudy - 17.1 1001.9 1.2
07/05:30pm NNW 8 12 - - - - 10 Partly cloudy - 15.9 1001.8 1.2
07/05:00pm N 8 12 - - - - 10 Cloudy - 15.5 1001.8 1.2
07/04:30pm NE 6 8 - - - - 10 Partly cloudy Showers 15.8 1001.6 1.2
07/04:00pm ESE 10 15 - - - - 10 Partly cloudy - 16.0 1001.9 1.2
07/03:30pm SE 11 15 - - - - 10 Mostly clear Showers 17.5 1001.9 1.2
07/03:15pm SSE 12 16 - - - - 10 Mostly clear Thunder 17.1 1002.0 1.2
07/03:00pm SSE 9 13 - - - - 5 Cloudy Showers 15.5 1002.2 1.2
07/02:58pm SSE 10 13 - - - - 5 Mostly clear Showers 15.7 1002.3 1.2
07/02:56pm SE 10 13 - - - - 3 Mostly clear Showers 16.0 1002.3 0.8
07/02:30pm SE 11 13 - - - - 10 Mostly clear Showers 16.8 1002.1 0.2
07/02:00pm SE 13 17 - - - - 8 Mostly clear - 17.9 1002.1 0.0
07/01:30pm SSE 11 16 - - - - 10 Mostly clear - 18.0 1002.0 0.0
07/01:00pm SE 10 13 - - - - 10 Mostly clear - 18.8 1001.9 0.0
07/12:30pm SE 9 12 - - - - 10 Mostly clear - 19.8 1002.0 0.0
07/12:00pm W 10 14 - - - - 10 Cloudy - 21.3 1001.8 0.0
07/11:30am WSW 6 9 - - - - 10 Mostly clear - 21.8 1002.0 0.0
07/11:00am W 7 12 - - - - 10 Mostly clear - 21.5 1002.4 0.0
07/10:30am SW 5 9 - - - - 10 Partly cloudy - 20.3 1002.6 0.0
07/10:00am SW 6 8 - - - - 10 Partly cloudy - 18.9 1002.9 0.0
07/09:30am W 5 8 - - - - 10 - - 18.0 1003.1 0.0
07/09:00am WNW 5 6 - - - - 10 - - 16.7 1003.4 0.2
07/08:30am WNW 3 5 - - - - 10 - - 15.1 1003.6 0.2
07/08:00am NNW 4 6 - - - - 10 - - 13.1 1003.7 0.2
07/07:30am NW 5 6 - - - - 10 Partly cloudy - 11.9 1003.7 0.2
07/07:00am NW 4 6 - - - - 10 Partly cloudy - 10.7 1003.6 0.2
07/06:30am NW 5 6 - - - - 10 - - 9.9 1003.7 0.2
07/06:00am NNW 5 6 - - - - 10 Cloudy - 10.0 1003.7 0.2
07/05:30am NNW 6 7 - - - - 10 - - 9.8 1003.8 0.2
07/05:00am NW 4 5 - - - - 10 - - 9.7 1003.9 0.2
07/04:30am NNW 4 4 - - - - 10 - - 9.5 1004.0 0.2
07/04:00am NW 4 6 - - - - 10 - - 9.4 1004.2 0.2
07/03:30am WNW 6 8 - - - - 10 - - 9.5 1004.5 0.2
07/03:00am NW 5 7 - - - - 10 Cloudy - 9.3 1004.5 0.2
07/02:30am NW 5 7 - - - - 10 - - 9.4 1004.9 0.2
07/02:00am NW 6 7 - - - - 10 - - 9.9 1005.3 0.2
07/01:30am NW 5 6 - - - - 10 - - 10.1 1005.7 0.2
07/01:00am NNW 5 6 - - - - 10 - - 10.5 1006.2 0.2
07/12:30am NNW 5 5 - - - - 10 - - 10.1 1006.6 0.2
07/12:00am N 4 5 - - - - 10 - - 10.7 1007.3 0.2
 
Date/Time
EDT
Wind Sea
Height
m
Swell Vis
km
Cloud Weather Temp
°C
Press
MSL
hPa
Rain since
9am
mm
Dir  Spd
kts
Gust
kts
Height
m
Period
s
Dir
06/11:30pm N 3 4 - - - - 10 Partly cloudy - 12.0 1007.6 0.2
06/11:00pm N 3 4 - - - - 10 Cloudy - 12.6 1008.0 0.2
06/10:30pm NNE 5 6 - - - - 10 Cloudy - 12.9 1008.1 0.2
06/10:00pm NNE 3 5 - - - - 10 Cloudy - 13.2 1008.4 0.2
06/09:30pm NE 4 4 - - - - 10 Cloudy - 13.3 1008.2 0.2
06/09:00pm ESE 6 7 - - - - 10 Cloudy - 12.7 1008.2 0.2
06/08:30pm ESE 5 7 - - - - 10 Partly cloudy - 12.4 1008.4 0.2
06/08:00pm ESE 7 8 - - - - 10 Mostly clear - 13.4 1008.3 0.2
06/07:30pm ESE 8 11 - - - - 10 - - 14.9 1008.1 0.2
06/07:00pm ESE 9 12 - - - - 10 Mostly clear - 15.6 1008.0 0.2
06/06:30pm ESE 10 13 - - - - 10 Partly cloudy - 16.1 1008.0 0.2
06/06:00pm ESE 12 16 - - - - 10 - - 16.7 1007.8 0.2
06/05:30pm ESE 11 15 - - - - 10 Mostly clear - 17.1 1007.8 0.2
06/05:00pm SE 9 14 - - - - 10 Partly cloudy - 17.4 1008.1 0.2
06/04:30pm SE 9 13 - - - - 10 Partly cloudy - 17.9 1008.3 0.2
06/04:00pm ESE 8 11 - - - - 10 Partly cloudy - 18.0 1008.7 0.2
06/03:30pm SE 10 15 - - - - 10 Mostly clear - 16.9 1009.1 0.2
06/03:00pm ESE 12 18 - - - - 10 Cloudy - 16.7 1009.2 0.2
06/02:30pm ESE 9 14 - - - - 10 Partly cloudy - 17.8 1009.4 0.2
06/02:00pm S 7 12 - - - - 10 Mostly clear - 17.8 1009.8 0.2
06/01:30pm SE 6 8 - - - - 10 Mostly clear - 17.8 1010.0 0.2
06/01:00pm ESE 5 9 - - - - 10 Partly cloudy - 17.0 1010.3 0.2
06/12:30pm SSW 7 11 - - - - 10 Partly cloudy - 16.5 1010.7 0.0
06/12:00pm E 5 9 - - - - 10 Cloudy - 15.8 1011.0 0.0
06/11:30am SE 4 6 - - - - 10 Partly cloudy - 15.1 1011.4 0.0
06/11:00am S 5 7 - - - - 10 Mostly clear - 15.1 1011.5 0.0
06/10:30am SSE 7 9 - - - - 9 Mostly clear Showers 13.7 1011.7 0.0
06/10:00am SE 3 4 - - - - 10 Partly cloudy - 14.3 1011.7 0.0
06/09:30am SSE 3 4 - - - - 10 Partly cloudy - 13.6 1012.0 0.0
06/09:20am SSE 1 3 - - - - 10 Partly cloudy - 13.2 1012.0 0.0
06/09:01am SSE 7 11 - - - - 6 Partly cloudy Showers 12.8 1012.1 0.0
06/09:00am SSE 7 11 - - - - 7 Cloudy Showers 13.0 1012.1 2.2
06/08:30am SSE 7 10 - - - - 10 Partly cloudy - 14.7 1012.0 2.2
06/08:00am SSE 6 8 - - - - 10 Partly cloudy - 14.0 1011.8 2.2
06/07:30am S 7 9 - - - - 10 Partly cloudy Showers 13.3 1011.7 2.0
06/07:00am S 6 8 - - - - 10 Partly cloudy - 13.3 1011.5 2.0
06/06:30am S 6 8 - - - - 10 Partly cloudy Showers 12.9 1011.2 2.0
06/06:00am S 7 9 - - - - 10 Mostly cloudy Rain 12.7 1011.1 2.0
06/05:30am S 6 8 - - - - 10 Partly cloudy - 12.6 1011.1 2.0
06/05:00am S 9 12 - - - - 10 Partly cloudy - 12.6 1011.1 2.0
06/04:30am SSE 10 14 - - - - 10 Partly cloudy - 12.8 1011.0 2.0
06/04:00am S 9 12 - - - - 10 Partly cloudy - 12.8 1010.8 2.0
06/03:30am SSE 10 15 - - - - 10 Partly cloudy - 12.9 1010.9 2.0
06/03:00am SSE 9 13 - - - - 10 Cloudy - 13.2 1010.9 2.0
06/02:30am SSE 10 13 - - - - 10 Partly cloudy - 13.4 1011.0 2.0
06/02:00am SSE 8 12 - - - - 10 Partly cloudy - 13.5 1011.0 2.0
06/01:30am SSE 7 10 - - - - 10 Partly cloudy - 13.4 1011.2 2.0
06/01:00am SE 9 13 - - - - 10 Partly cloudy - 13.5 1011.4 2.0
06/12:30am SSE 8 13 - - - - 10 Partly cloudy - 13.6 1011.6 2.0
06/12:00am SE 5 6 - - - - 10 Cloudy Showers 13.5 1011.7 2.0
 
Date/Time
EDT
Wind Sea
Height
m
Swell Vis
km
Cloud Weather Temp
°C
Press
MSL
hPa
Rain since
9am
mm
Dir  Spd
kts
Gust
kts
Height
m
Period
s
Dir
05/11:30pm SSE 9 13 - - - - 9 Partly cloudy - 13.5 1011.9 2.0
05/11:09pm SSE 7 10 - - - - 10 Partly cloudy - 13.7 1011.7 2.0
05/11:00pm SE 8 12 - - - - 7 Partly cloudy - 13.6 1011.7 2.0
05/10:44pm SE 9 12 - - - - 6 Partly cloudy - 14.0 1011.7 1.8
05/10:30pm SSE 9 12 - - - - 10 Partly cloudy - 14.2 1011.8 1.8
05/10:00pm S 5 7 - - - - 10 Partly cloudy - 14.1 1011.7 1.8
05/09:30pm SE 10 13 - - - - 10 Partly cloudy - 13.9 1010.9 1.6
05/09:18pm ESE 11 15 - - - - 10 Partly cloudy - 13.8 1010.6 1.6
05/09:16pm ESE 12 15 - - - - 10 Partly cloudy - 13.8 1010.5 1.6
05/09:04pm ESE 11 16 - - - - 8 Partly cloudy Showers 13.8 1010.6 1.6
05/09:00pm ESE 10 18 - - - - 4 Cloudy Showers 13.8 1010.6 1.6
05/08:48pm SW 11 16 - - - - 3 Partly cloudy Showers 14.2 1010.7 0.6
05/08:30pm W 13 22 - - - - 7 Partly cloudy Showers 14.8 1010.1 0.0
05/08:00pm W 16 25 - - - - 9 Partly cloudy - 15.2 1009.2 0.0
05/07:30pm W 17 23 - - - - 10 Partly cloudy - 15.5 1008.9 0.0
05/07:04pm W 17 27 - - - - 10 Partly cloudy - 16.0 1008.5 0.0
05/07:00pm W 16 25 - - - - 10 Partly cloudy - 16.3 1008.5 0.0
05/06:53pm W 19 29 - - - - 10 Partly cloudy - 16.2 1008.4 0.0
05/06:30pm W 20 28 - - - - 10 Mostly clear - 16.6 1008.1 0.0
05/06:24pm W 18 28 - - - - 10 Partly cloudy - 16.6 1008.2 0.0
05/06:00pm W 19 28 - - - - 10 Cloudy - 17.0 1007.8 0.0
05/05:30pm W 21 29 - - - - 10 Partly cloudy - 17.9 1007.3 0.0
05/05:00pm W 20 32 - - - - 10 Partly cloudy - 17.7 1007.1 0.0
05/04:36pm W 20 30 - - - - 10 Partly cloudy - 18.7 1007.0 0.0
05/04:30pm W 21 29 - - - - 10 Partly cloudy - 18.6 1006.9 0.0
05/04:00pm W 22 33 - - - - 10 Partly cloudy - 19.4 1006.6 0.0
05/03:40pm W 25 38 - - - - 10 Mostly clear - 19.8 1006.6 0.0
05/03:39pm W 25 38 - - - - 10 Mostly clear - 19.5 1006.4 0.0
05/03:30pm W 20 31 - - - - 10 Mostly clear - 20.6 1006.5 0.0
05/03:00pm W 23 33 - - - - 10 Mostly cloudy - 18.6 1006.6 0.0
05/02:30pm W 22 32 - - - - 10 Partly cloudy - 19.5 1006.4 0.0
05/02:01pm W 23 33 - - - - 10 Mostly clear - 18.9 1006.6 0.0
05/02:00pm W 24 33 - - - - 10 Mostly clear - 19.2 1006.6 0.0
05/01:30pm W 27 38 - - - - 10 Mostly clear - 19.8 1006.0 0.0
05/01:05pm W 24 34 - - - - 10 Partly cloudy - 19.5 1006.4 0.0
05/01:00pm W 24 31 - - - - 10 Partly cloudy - 20.0 1006.4 0.0
05/12:30pm W 22 32 - - - - 10 - - 20.5 1005.8 0.0
05/12:00pm W 23 35 - - - - 10 Mostly cloudy - 20.6 1005.8 0.0
05/11:49am W 19 29 - - - - 10 Partly cloudy - 20.9 1005.8 0.0
05/11:30am W 19 26 - - - - 10 Partly cloudy - 19.9 1005.8 0.0
05/11:00am W 20 30 - - - - 10 Mostly clear - 19.6 1005.6 0.0
05/10:36am W 17 27 - - - - 10 Mostly clear - 19.1 1005.5 0.0
05/10:30am W 17 25 - - - - 10 Mostly clear - 18.8 1005.4 0.0
05/10:00am W 19 28 - - - - 10 - - 18.0 1005.1 0.0
05/09:32am W 18 29 - - - - 10 - - 17.7 1005.3 0.0
05/09:30am W 17 25 - - - - 10 - - 17.7 1005.2 0.0
05/09:06am W 15 25 - - - - 10 - - 17.9 1005.6 0.0
05/09:00am W 13 23 - - - - 10 Cloudy - 17.9 1005.6 0.6
05/08:43am W 15 25 - - - - 10 Mostly clear - 17.8 1005.6 0.6
05/08:30am W 17 24 - - - - 10 Partly cloudy - 17.9 1005.6 0.6
05/08:13am W 15 25 - - - - 10 Partly cloudy - 17.8 1005.2 0.6
05/08:00am W 15 22 - - - - 10 Partly cloudy - 17.8 1005.6 0.6
05/07:30am W 11 16 - - - - 10 Mostly clear Showers 17.8 1005.1 0.6
05/07:00am WSW 11 19 - - - - 10 - - 18.1 1004.5 0.6
05/06:30am W 19 30 - - - - 10 - - 18.1 1004.8 0.6
05/06:21am WSW 18 28 - - - - 10 - - 18.3 1004.8 0.6
05/06:00am WSW 17 26 - - - - 10 Cloudy - 18.4 1004.5 0.6
05/05:54am WSW 16 26 - - - - 10 Partly cloudy - 18.6 1004.4 0.6
05/05:30am W 14 21 - - - - 10 - - 19.0 1003.8 0.6
05/05:00am W 10 15 - - - - 10 - - 20.0 1003.1 0.6
05/04:30am WSW 9 11 - - - - 10 - - 20.6 1002.6 0.6
05/04:00am WSW 9 12 - - - - 10 - - 22.0 1002.7 0.6
05/03:30am W 9 13 - - - - 10 - - 22.7 1002.3 0.6
05/03:00am NNW 4 5 - - - - 10 Cloudy - 21.0 1002.1 0.6
05/02:30am SW 8 11 - - - - 10 - - 19.7 1002.6 0.6
05/02:00am CALM 0 0 - - - - 10 - - 19.6 1002.3 0.6
05/01:30am N 2 3 - - - - 10 - - 19.5 1002.5 0.6
05/01:00am NE 4 6 - - - - 10 - - 20.3 1002.9 0.6
05/12:30am ENE 3 4 - - - - 10 - - 19.5 1003.5 0.6
05/12:00am NNE 5 7 - - - - 10 Cloudy - 21.3 1004.2 0.6
 
Date/Time
EDT
Wind Sea
Height
m
Swell Vis
km
Cloud Weather Temp
°C
Press
MSL
hPa
Rain since
9am
mm
Dir  Spd
kts
Gust
kts
Height
m
Period
s
Dir
04/11:30pm NE 8 10 - - - - 10 - - 21.6 1004.7 0.6
04/11:00pm NE 9 11 - - - - 10 - - 21.5 1005.3 0.6
04/10:30pm NE 8 10 - - - - 10 - - 21.6 1005.8 0.6

Other formats

Comma delimited format used in spreadsheet applications
http://www.bom.gov.au/fwo/IDV60701/IDV60701.95907.axf

JavaScript Object Notation format (JSON) in row-major order
http://www.bom.gov.au/fwo/IDV60701/IDV60701.95907.json

Data quality

Most of these data are generated automatically and are frequently updated. Quality checks on data are not normally performed. It is possible for incorrect values to appear. Refer to information at About Latest Weather Observations and please check the disclaimer before using these data.